createdAt,value
2019-06-10T00:00:54.970Z,304.23
2019-06-10T00:01:53.730Z,304.13
2019-06-10T00:02:53.706Z,304.33
2019-06-10T00:03:53.690Z,304.47
2019-06-10T00:04:53.684Z,304.52
2019-06-10T00:05:53.671Z,303.88
2019-06-10T00:06:53.685Z,304.47
2019-06-10T00:07:53.698Z,304.18
2019-06-10T00:08:53.679Z,303.52
2019-06-10T00:09:53.616Z,304.32
2019-06-10T00:10:53.608Z,304.03
2019-06-10T00:11:53.627Z,304.01
2019-06-10T00:12:55.348Z,304.64
2019-06-10T00:13:53.592Z,304.06
2019-06-10T00:14:53.576Z,304.34
2019-06-10T00:15:53.553Z,304.19
2019-06-10T00:16:53.553Z,303.95
2019-06-10T00:18:13.220Z,304.03
2019-06-10T00:18:54.519Z,303.54
2019-06-10T00:19:53.516Z,303.82
2019-06-10T00:20:53.510Z,303.54
2019-06-10T00:21:53.530Z,303.24
2019-06-10T00:22:53.482Z,303.15
2019-06-10T00:23:53.473Z,303.27
2019-06-10T00:24:53.452Z,303.11
2019-06-10T00:25:53.455Z,303.08
2019-06-10T00:26:53.442Z,302.97
2019-06-10T00:27:53.428Z,303.38
2019-06-10T00:28:53.405Z,303.64
2019-06-10T00:29:53.406Z,303.66
2019-06-10T00:30:53.396Z,303.41
2019-06-10T00:31:53.383Z,303.65
2019-06-10T00:32:53.377Z,303.64
2019-06-10T00:33:53.367Z,303.29
2019-06-10T00:34:53.345Z,303.34
2019-06-10T00:35:53.324Z,304.04
2019-06-10T00:36:53.315Z,303.44
2019-06-10T00:37:53.342Z,303.68
2019-06-10T00:38:53.293Z,303.31
2019-06-10T00:39:53.296Z,303.75
2019-06-10T00:40:53.287Z,304.09
2019-06-10T00:41:53.261Z,303.71
2019-06-10T00:42:53.254Z,303.80
2019-06-10T00:43:53.271Z,303.74
2019-06-10T00:44:53.246Z,303.77
2019-06-10T00:45:53.248Z,303.87
2019-06-10T00:46:53.223Z,304.04
2019-06-10T00:48:07.637Z,303.74
2019-06-10T00:48:54.204Z,303.91
2019-06-10T00:49:53.180Z,304.54
2019-06-10T00:50:53.159Z,304.26
2019-06-10T00:51:53.158Z,304.35
2019-06-10T00:52:53.154Z,304.49
2019-06-10T00:53:53.142Z,304.10
2019-06-10T00:54:53.136Z,304.48
2019-06-10T00:55:53.116Z,304.76
2019-06-10T00:56:53.111Z,304.28
2019-06-10T00:57:53.096Z,304.68
2019-06-10T00:58:53.104Z,304.46
2019-06-10T00:59:53.069Z,305.14
2019-06-10T01:00:53.051Z,304.55
2019-06-10T01:01:53.042Z,304.64
2019-06-10T01:02:53.030Z,304.96
2019-06-10T01:03:53.037Z,304.59
2019-06-10T01:04:53.013Z,305.05
2019-06-10T01:05:53.005Z,304.95
2019-06-10T01:06:52.996Z,304.71
2019-06-10T01:07:52.991Z,305.14
2019-06-10T01:08:52.963Z,304.79
2019-06-10T01:09:52.976Z,305.46
2019-06-10T01:10:52.947Z,305.24
2019-06-10T01:11:52.944Z,305.12
2019-06-10T01:12:52.927Z,304.79
2019-06-10T01:13:52.907Z,304.80
2019-06-10T01:14:52.927Z,304.94
2019-06-10T01:15:52.904Z,304.76
2019-06-10T01:16:52.879Z,304.94
2019-06-10T01:17:52.878Z,304.74
2019-06-10T01:18:53.672Z,305.08
2019-06-10T01:19:52.852Z,305.37
2019-06-10T01:20:52.855Z,304.72
2019-06-10T01:21:52.843Z,304.76
2019-06-10T01:22:52.821Z,305.03
2019-06-10T01:23:52.807Z,304.97
2019-06-10T01:24:52.798Z,305.02
2019-06-10T01:25:52.796Z,304.44
2019-06-10T01:26:52.778Z,304.56
2019-06-10T01:27:52.757Z,305.41
2019-06-10T01:28:52.747Z,304.43
2019-06-10T01:29:52.742Z,304.82
2019-06-10T01:30:52.762Z,304.65
2019-06-10T01:31:52.708Z,304.53
2019-06-10T01:32:52.711Z,304.66
2019-06-10T01:33:52.693Z,304.75
2019-06-10T01:34:52.692Z,305.21
2019-06-10T01:35:52.679Z,305.15
2019-06-10T01:36:52.684Z,304.67
2019-06-10T01:37:52.647Z,305.10
2019-06-10T01:38:52.643Z,304.78
2019-06-10T01:39:52.639Z,305.56
2019-06-10T01:40:52.623Z,304.83
2019-06-10T01:41:52.618Z,305.15
2019-06-10T01:42:52.591Z,305.52
2019-06-10T01:43:52.594Z,304.39
2019-06-10T01:44:52.581Z,305.41
2019-06-10T01:45:52.566Z,305.37
2019-06-10T01:46:52.561Z,305.13
2019-06-10T01:47:52.547Z,304.82
2019-06-10T01:48:52.535Z,304.85
2019-06-10T01:49:52.522Z,305.10
2019-06-10T01:50:52.517Z,304.92
2019-06-10T01:51:52.509Z,304.63
2019-06-10T01:52:52.478Z,304.51
2019-06-10T01:53:52.467Z,304.97
2019-06-10T01:54:52.461Z,304.83
2019-06-10T01:55:52.460Z,304.96
2019-06-10T01:56:52.450Z,304.45
2019-06-10T01:57:52.459Z,304.96
2019-06-10T01:58:52.434Z,305.35
2019-06-10T01:59:52.408Z,304.85
2019-06-10T02:00:52.435Z,304.48
2019-06-10T02:01:52.405Z,304.94
2019-06-10T02:02:52.590Z,305.18
2019-06-10T02:03:52.364Z,304.77
2019-06-10T02:04:52.348Z,304.92
2019-06-10T02:05:52.343Z,304.72
2019-06-10T02:06:52.342Z,304.95
2019-06-10T02:07:52.337Z,305.00
2019-06-10T02:08:52.311Z,304.81
2019-06-10T02:09:52.295Z,304.44
2019-06-10T02:10:52.300Z,304.80
2019-06-10T02:11:52.270Z,304.64
2019-06-10T02:12:52.286Z,304.70
2019-06-10T02:13:52.248Z,305.15
2019-06-10T02:14:52.239Z,304.46
2019-06-10T02:15:52.241Z,304.66
2019-06-10T02:16:52.220Z,304.39
2019-06-10T02:17:52.202Z,304.39
2019-06-10T02:19:00.035Z,304.75
2019-06-10T02:19:53.191Z,304.45
2019-06-10T02:20:52.183Z,305.06
2019-06-10T02:21:52.172Z,304.24
2019-06-10T02:22:52.147Z,304.32
2019-06-10T02:23:52.243Z,304.66
2019-06-10T02:24:52.125Z,304.67
2019-06-10T02:25:52.114Z,304.50
2019-06-10T02:26:52.113Z,304.56
2019-06-10T02:27:52.101Z,304.69
2019-06-10T02:28:52.105Z,304.30
2019-06-10T02:29:52.080Z,304.53
2019-06-10T02:30:55.790Z,304.45
2019-06-10T02:31:52.413Z,304.32
2019-06-10T02:32:52.494Z,304.75
2019-06-10T02:33:52.643Z,304.42
2019-06-10T02:35:03.443Z,304.45
2019-06-10T02:35:53.856Z,304.40
2019-06-10T02:36:53.634Z,304.08
2019-06-10T02:37:54.003Z,304.90
2019-06-10T02:38:53.934Z,304.64
2019-06-10T02:39:54.197Z,304.80
2019-06-10T02:40:53.877Z,304.87
2019-06-10T02:41:53.511Z,304.01
2019-06-10T02:42:53.990Z,304.59
2019-06-10T02:43:53.468Z,304.88
2019-06-10T02:44:54.046Z,304.22
2019-06-10T02:45:53.077Z,304.51
2019-06-10T02:46:54.419Z,303.49
2019-06-10T02:47:53.304Z,303.40
2019-06-10T02:48:54.482Z,303.11
2019-06-10T02:50:01.338Z,302.98
2019-06-10T02:50:53.879Z,303.22
2019-06-10T02:51:53.798Z,303.21
2019-06-10T02:52:53.076Z,303.86
2019-06-10T02:53:53.822Z,303.24
2019-06-10T02:54:53.463Z,303.34
2019-06-10T02:55:53.901Z,303.72
2019-06-10T02:56:53.687Z,303.95
2019-06-10T02:57:53.319Z,304.03
2019-06-10T02:58:53.497Z,303.62
2019-06-10T02:59:54.453Z,303.41
2019-06-10T03:00:54.612Z,303.66
2019-06-10T03:01:53.666Z,303.88
2019-06-10T03:02:53.061Z,304.28
2019-06-10T03:03:54.228Z,303.72
2019-06-10T03:04:53.628Z,303.83
2019-06-10T03:05:53.722Z,304.28
2019-06-10T03:06:54.251Z,304.33
2019-06-10T03:07:53.296Z,304.30
2019-06-10T03:08:54.926Z,304.58
2019-06-10T03:09:53.807Z,304.57
2019-06-10T03:10:54.438Z,304.37
2019-06-10T03:11:53.477Z,304.95
2019-06-10T03:12:52.815Z,304.73
2019-06-10T03:13:53.122Z,304.91
2019-06-10T03:14:52.569Z,304.60
2019-06-10T03:15:52.253Z,304.89
2019-06-10T03:16:52.748Z,304.95
2019-06-10T03:17:52.139Z,304.25
2019-06-10T03:18:52.526Z,304.74
2019-06-10T03:19:53.569Z,304.79
2019-06-10T03:20:52.845Z,305.25
2019-06-10T03:21:52.190Z,305.40
2019-06-10T03:22:52.519Z,305.72
2019-06-10T03:23:53.145Z,304.88
2019-06-10T03:24:52.408Z,304.80
2019-06-10T03:25:52.734Z,305.30
2019-06-10T03:26:52.189Z,304.95
2019-06-10T03:27:52.532Z,305.50
2019-06-10T03:28:52.036Z,305.36
2019-06-10T03:29:52.695Z,305.19
2019-06-10T03:30:55.354Z,305.82
2019-06-10T03:31:55.246Z,305.81
2019-06-10T03:32:55.360Z,305.27
2019-06-10T03:33:54.426Z,305.82
2019-06-10T03:34:54.878Z,305.50
2019-06-10T03:35:52.640Z,305.68
2019-06-10T03:36:53.361Z,305.30
2019-06-10T03:37:52.817Z,305.65
2019-06-10T03:38:53.681Z,305.73
2019-06-10T03:39:53.102Z,305.56
2019-06-10T03:40:52.456Z,306.11
2019-06-10T03:41:52.794Z,305.62
2019-06-10T03:42:52.037Z,305.83
2019-06-10T03:43:53.112Z,304.98
2019-06-10T03:44:52.572Z,306.10
2019-06-10T03:45:53.154Z,305.88
2019-06-10T03:46:52.337Z,306.01
2019-06-10T03:47:52.704Z,306.02
2019-06-10T03:48:52.664Z,306.24
2019-06-10T03:49:53.458Z,305.87
2019-06-10T03:50:52.440Z,305.65
2019-06-10T03:51:52.938Z,305.98
2019-06-10T03:52:52.456Z,305.80
2019-06-10T03:53:53.106Z,305.63
2019-06-10T03:54:52.520Z,305.71
2019-06-10T03:55:52.652Z,305.35
2019-06-10T03:56:52.116Z,305.42
2019-06-10T03:57:52.610Z,306.06
2019-06-10T03:58:52.119Z,305.62
2019-06-10T03:59:52.778Z,305.70
2019-06-10T04:00:52.234Z,305.10
2019-06-10T04:01:52.891Z,305.88
2019-06-10T04:02:53.106Z,305.79
2019-06-10T04:03:52.986Z,305.73
2019-06-10T04:04:52.336Z,305.47
2019-06-10T04:05:52.694Z,305.37
2019-06-10T04:06:53.215Z,305.05
2019-06-10T04:07:52.696Z,305.14
2019-06-10T04:08:52.230Z,306.06
2019-06-10T04:09:52.590Z,305.64
2019-06-10T04:10:52.072Z,305.74
2019-06-10T04:11:52.863Z,305.55
2019-06-10T04:12:52.354Z,305.66
2019-06-10T04:13:53.358Z,305.52
2019-06-10T04:14:52.180Z,305.97
2019-06-10T04:15:53.310Z,306.14
2019-06-10T04:16:52.528Z,305.85
2019-06-10T04:17:53.013Z,305.53
2019-06-10T04:18:53.270Z,305.97
2019-06-10T04:20:07.563Z,306.25
2019-06-10T04:20:52.873Z,306.48
2019-06-10T04:21:53.045Z,306.35
2019-06-10T04:22:52.295Z,306.36
2019-06-10T04:23:52.797Z,305.97
2019-06-10T04:24:52.081Z,306.17
2019-06-10T04:25:52.687Z,306.02
2019-06-10T04:26:52.131Z,306.53
2019-06-10T04:27:52.430Z,306.13
2019-06-10T04:28:52.853Z,306.41
2019-06-10T04:29:52.385Z,306.15
2019-06-10T04:30:53.091Z,306.60
2019-06-10T04:31:52.408Z,306.54
2019-06-10T04:32:52.779Z,306.14
2019-06-10T04:33:52.356Z,306.28
2019-06-10T04:34:52.868Z,305.98
2019-06-10T04:35:52.018Z,306.51
2019-06-10T04:36:52.614Z,306.02
2019-06-10T04:37:52.042Z,306.42
2019-06-10T04:38:52.506Z,306.66
2019-06-10T04:39:52.918Z,306.14
2019-06-10T04:40:52.563Z,306.63
2019-06-10T04:41:52.985Z,306.38
2019-06-10T04:42:52.523Z,306.82
2019-06-10T04:43:53.007Z,306.85
2019-06-10T04:44:52.530Z,306.72
2019-06-10T04:45:52.607Z,306.24
2019-06-10T04:46:52.067Z,306.48
2019-06-10T04:47:52.439Z,306.57
2019-06-10T04:48:53.027Z,306.64
2019-06-10T04:49:52.242Z,306.95
2019-06-10T04:50:53.165Z,306.83
2019-06-10T04:51:52.377Z,306.54
2019-06-10T04:52:52.763Z,306.24
2019-06-10T04:53:52.481Z,306.60
2019-06-10T04:54:52.602Z,306.51
2019-06-10T04:55:52.271Z,306.87
2019-06-10T04:56:52.752Z,307.02
2019-06-10T04:57:52.120Z,306.79
2019-06-10T04:58:52.572Z,307.09
2019-06-10T04:59:50.417Z,307.10
2019-06-10T05:00:52.333Z,306.86
2019-06-10T05:01:52.884Z,306.92
2019-06-10T05:02:52.247Z,307.15
2019-06-10T05:03:52.455Z,306.97
2019-06-10T05:04:50.353Z,306.92
2019-06-10T05:05:52.622Z,307.25
2019-06-10T05:06:52.538Z,306.94
2019-06-10T05:07:52.066Z,307.33
2019-06-10T05:08:50.296Z,306.83
2019-06-10T05:09:52.437Z,306.81
2019-06-10T05:10:50.286Z,307.23
2019-06-10T05:11:52.253Z,306.59
2019-06-10T05:12:52.446Z,306.58
2019-06-10T05:13:50.257Z,307.33
2019-06-10T05:14:52.521Z,306.80
2019-06-10T05:15:52.571Z,307.70
2019-06-10T05:16:50.227Z,307.32
2019-06-10T05:17:52.545Z,307.13
2019-06-10T05:18:54.058Z,306.86
2019-06-10T05:19:50.217Z,307.28
2019-06-10T05:20:57.719Z,307.48
2019-06-10T05:21:52.413Z,307.19
2019-06-10T05:22:50.164Z,307.29
2019-06-10T05:23:52.158Z,307.39
2019-06-10T05:24:50.145Z,306.81
2019-06-10T05:25:52.636Z,307.26
2019-06-10T05:26:52.547Z,307.42
2019-06-10T05:27:52.138Z,307.65
2019-06-10T05:28:52.268Z,307.32
2019-06-10T05:29:50.075Z,307.19
2019-06-10T05:30:50.069Z,307.16
2019-06-10T05:31:52.175Z,307.70
2019-06-10T05:32:52.268Z,307.72
2019-06-10T05:33:50.036Z,307.11
2019-06-10T05:34:52.655Z,307.18
2019-06-10T05:35:50.011Z,307.13
2019-06-10T05:36:52.423Z,307.70
2019-06-10T05:37:49.991Z,307.18
2019-06-10T05:38:52.379Z,307.79
2019-06-10T05:39:49.959Z,307.68
2019-06-10T05:40:51.994Z,307.95
2019-06-10T05:41:50.839Z,307.71
2019-06-10T05:42:49.983Z,307.73
2019-06-10T05:43:52.099Z,307.16
2019-06-10T05:44:52.278Z,307.45
2019-06-10T05:45:49.901Z,307.17
2019-06-10T05:46:49.885Z,307.69
2019-06-10T05:47:49.874Z,307.74
2019-06-10T05:48:52.403Z,307.55
2019-06-10T05:49:49.855Z,307.48
2019-06-10T05:51:00.117Z,307.69
2019-06-10T05:51:52.672Z,307.44
2019-06-10T05:52:51.919Z,307.61
2019-06-10T05:53:49.813Z,307.96
2019-06-10T05:54:51.993Z,307.48
2019-06-10T05:55:49.808Z,307.10
2019-06-10T05:56:52.053Z,307.09
2019-06-10T05:57:49.764Z,307.74
2019-06-10T05:58:52.268Z,307.21
2019-06-10T05:59:52.144Z,307.72
2019-06-10T06:00:49.742Z,307.41
2019-06-10T06:01:49.719Z,307.33
2019-06-10T06:02:52.118Z,307.57
2019-06-10T06:03:49.699Z,307.47
2019-06-10T06:04:49.685Z,306.99
2019-06-10T06:05:49.670Z,307.34
2019-06-10T06:06:49.666Z,307.65
2019-06-10T06:08:04.149Z,307.26
2019-06-10T06:08:53.162Z,307.03
2019-06-10T06:09:49.631Z,307.22
2019-06-10T06:10:49.617Z,307.75
2019-06-10T06:11:49.599Z,307.29
2019-06-10T06:12:49.603Z,307.64
2019-06-10T06:13:52.043Z,307.75
2019-06-10T06:14:49.590Z,307.29
2019-06-10T06:15:49.568Z,307.59
2019-06-10T06:16:49.552Z,307.12
2019-06-10T06:18:04.047Z,307.27
2019-06-10T06:18:52.485Z,307.54
2019-06-10T06:19:49.554Z,307.44
2019-06-10T06:20:49.518Z,307.47
2019-06-10T06:21:49.540Z,307.22
2019-06-10T06:22:49.489Z,307.35
2019-06-10T06:23:49.493Z,307.25
2019-06-10T06:24:49.493Z,307.51
2019-06-10T06:25:49.458Z,307.42
2019-06-10T06:26:49.437Z,307.43
2019-06-10T06:27:49.437Z,307.43
2019-06-10T06:28:49.422Z,308.05
2019-06-10T06:29:49.411Z,307.52
2019-06-10T06:30:49.428Z,307.29
2019-06-10T06:31:49.386Z,307.59
2019-06-10T06:32:49.380Z,307.78
2019-06-10T06:33:49.356Z,307.53
2019-06-10T06:34:49.360Z,307.83
2019-06-10T06:35:49.355Z,307.49
2019-06-10T06:36:49.327Z,307.82
2019-06-10T06:37:49.318Z,307.91
2019-06-10T06:38:49.307Z,307.71
2019-06-10T06:39:49.307Z,307.42
2019-06-10T06:40:49.322Z,307.62
2019-06-10T06:41:49.284Z,308.07
2019-06-10T06:42:49.340Z,308.11
2019-06-10T06:43:49.248Z,307.47
2019-06-10T06:44:49.306Z,307.36
2019-06-10T06:45:49.248Z,307.99
2019-06-10T06:46:49.305Z,307.45
2019-06-10T06:47:49.259Z,307.53
2019-06-10T06:48:52.982Z,308.01
2019-06-10T06:49:49.184Z,307.42
2019-06-10T06:51:02.050Z,307.12
2019-06-10T06:51:56.085Z,307.27
2019-06-10T06:53:19.039Z,306.84
2019-06-10T06:53:53.029Z,307.46
2019-06-10T06:54:50.131Z,307.22
2019-06-10T06:55:49.121Z,306.90
2019-06-10T06:56:49.138Z,307.21
2019-06-10T06:57:49.105Z,306.92
2019-06-10T06:58:49.094Z,307.35
2019-06-10T06:59:49.084Z,307.20
2019-06-10T07:01:03.781Z,306.63
2019-06-10T07:01:52.329Z,306.85
2019-06-10T07:02:49.059Z,306.68
2019-06-10T07:03:49.031Z,307.10
2019-06-10T07:04:49.032Z,307.18
2019-06-10T07:05:49.052Z,307.13
2019-06-10T07:06:49.012Z,307.81
2019-06-10T07:07:48.997Z,307.74
2019-06-10T07:09:03.746Z,307.62
2019-06-10T07:09:49.974Z,307.59
2019-06-10T07:10:48.954Z,308.23
2019-06-10T07:11:48.963Z,308.35
2019-06-10T07:12:48.951Z,308.33
2019-06-10T07:13:48.938Z,308.18
2019-06-10T07:14:48.938Z,308.56
2019-06-10T07:15:48.908Z,308.50
2019-06-10T07:16:48.903Z,308.70
2019-06-10T07:17:48.902Z,308.30
2019-06-10T07:18:50.282Z,308.48
2019-06-10T07:19:48.861Z,308.27
2019-06-10T07:20:48.886Z,308.38
2019-06-10T07:22:06.644Z,308.11
2019-06-10T07:22:49.863Z,307.68
2019-06-10T07:23:48.840Z,307.72
2019-06-10T07:24:48.810Z,307.55
2019-06-10T07:25:48.799Z,306.90
2019-06-10T07:26:52.184Z,307.39
2019-06-10T07:27:49.792Z,307.51
2019-06-10T07:28:48.778Z,307.38
2019-06-10T07:29:48.744Z,306.70
2019-06-10T07:30:52.748Z,307.17
2019-06-10T07:31:51.047Z,306.78
2019-06-10T07:32:48.736Z,307.03
2019-06-10T07:33:48.717Z,306.64
2019-06-10T07:34:48.713Z,306.40
2019-06-10T07:35:48.691Z,306.31
2019-06-10T07:36:48.686Z,306.33
2019-06-10T07:37:48.686Z,306.48
2019-06-10T07:38:49.272Z,306.58
2019-06-10T07:39:48.644Z,307.19
2019-06-10T07:40:48.640Z,306.75
2019-06-10T07:41:48.692Z,306.58
2019-06-10T07:42:48.629Z,307.05
2019-06-10T07:43:49.748Z,306.22
2019-06-10T07:44:48.596Z,306.74
2019-06-10T07:45:48.583Z,306.55
2019-06-10T07:46:48.565Z,306.70
2019-06-10T07:47:48.549Z,306.70
2019-06-10T07:48:52.504Z,306.52
2019-06-10T07:49:49.534Z,306.76
2019-06-10T07:50:48.522Z,306.33
2019-06-10T07:51:48.516Z,306.40
2019-06-10T07:52:48.501Z,305.84
2019-06-10T07:53:48.497Z,306.70
2019-06-10T07:54:48.477Z,305.82
2019-06-10T07:55:48.476Z,306.07
2019-06-10T07:56:50.668Z,305.83
2019-06-10T07:57:49.446Z,305.90
2019-06-10T07:58:48.472Z,306.45
2019-06-10T07:59:48.412Z,306.61
2019-06-10T08:00:48.682Z,306.42
2019-06-10T08:01:51.780Z,305.75
2019-06-10T08:02:49.383Z,306.33
2019-06-10T08:03:48.390Z,306.80
2019-06-10T08:04:48.396Z,306.39
2019-06-10T08:05:48.368Z,306.28
2019-06-10T08:06:50.067Z,306.22
2019-06-10T08:07:49.017Z,306.26
2019-06-10T08:08:48.316Z,306.20
2019-06-10T08:09:48.340Z,306.55
2019-06-10T08:10:48.331Z,306.80
2019-06-10T08:11:48.805Z,306.04
2019-06-10T08:12:48.402Z,307.07
2019-06-10T08:13:48.263Z,306.88
2019-06-10T08:14:48.282Z,307.20
2019-06-10T08:15:48.451Z,307.45
2019-06-10T08:16:48.670Z,307.30
2019-06-10T08:17:48.339Z,307.60
2019-06-10T08:19:16.159Z,307.80
2019-06-10T08:19:51.132Z,307.62
2019-06-10T08:20:48.229Z,307.60
2019-06-10T08:21:49.538Z,307.17
2019-06-10T08:22:54.041Z,307.73
2019-06-10T08:23:49.168Z,307.71
2019-06-10T08:24:48.449Z,307.61
2019-06-10T08:25:53.674Z,307.73
2019-06-10T08:26:49.141Z,307.04
2019-06-10T08:27:49.353Z,307.18
2019-06-10T08:28:48.405Z,307.00
2019-06-10T08:29:49.798Z,306.52
2019-06-10T08:30:49.098Z,307.05
2019-06-10T08:31:49.915Z,307.02
2019-06-10T08:32:53.177Z,307.48
2019-06-10T08:33:49.207Z,307.29
2019-06-10T08:34:48.211Z,306.63
2019-06-10T08:35:56.379Z,306.15
2019-06-10T08:36:50.814Z,306.85
2019-06-10T08:37:48.990Z,306.84
2019-06-10T08:38:48.788Z,306.75
2019-06-10T08:39:48.000Z,305.74
2019-06-10T08:40:48.514Z,306.45
2019-06-10T08:41:49.276Z,306.29
2019-06-10T08:42:48.915Z,306.16
2019-06-10T08:43:48.525Z,306.59
2019-06-10T08:44:48.623Z,307.05
2019-06-10T08:45:48.822Z,306.71
2019-06-10T08:46:48.671Z,306.35
2019-06-10T08:47:49.166Z,306.67
2019-06-10T08:48:49.495Z,307.02
2019-06-10T08:49:49.128Z,306.05
2019-06-10T08:50:49.944Z,306.53
2019-06-10T08:51:50.047Z,305.95
2019-06-10T08:53:03.690Z,306.35
2019-06-10T08:53:50.079Z,306.28
2019-06-10T08:54:50.952Z,306.18
2019-06-10T08:55:50.299Z,306.27
2019-06-10T08:56:50.716Z,305.91
2019-06-10T08:57:50.971Z,306.37
2019-06-10T08:58:49.650Z,306.19
2019-06-10T08:59:49.263Z,305.90
2019-06-10T09:00:49.484Z,306.10
2019-06-10T09:01:51.551Z,306.58
2019-06-10T09:02:50.815Z,306.24
2019-06-10T09:03:49.447Z,306.03
2019-06-10T09:04:50.389Z,306.06
2019-06-10T09:05:50.711Z,305.60
2019-06-10T09:06:50.592Z,305.64
2019-06-10T09:07:50.878Z,306.01
2019-06-10T09:08:51.273Z,305.71
2019-06-10T09:09:50.361Z,305.93
2019-06-10T09:10:49.858Z,305.87
2019-06-10T09:11:51.303Z,305.95
2019-06-10T09:12:50.980Z,305.38
2019-06-10T09:13:50.354Z,305.85
2019-06-10T09:14:48.769Z,305.28
2019-06-10T09:16:03.685Z,305.89
2019-06-10T09:16:49.353Z,306.19
2019-06-10T09:17:49.632Z,305.31
2019-06-10T09:18:50.861Z,305.70
2019-06-10T09:19:50.066Z,305.15
2019-06-10T09:20:52.425Z,305.44
2019-06-10T09:21:52.412Z,306.06
2019-06-10T09:23:06.497Z,305.40
2019-06-10T09:23:55.869Z,305.38
2019-06-10T09:24:52.367Z,305.47
2019-06-10T09:25:52.824Z,305.12
2019-06-10T09:26:51.247Z,304.84
2019-06-10T09:27:49.403Z,305.43
2019-06-10T09:28:52.419Z,305.19
2019-06-10T09:29:52.104Z,305.62
2019-06-10T09:30:54.109Z,305.16
2019-06-10T09:31:51.305Z,305.23
2019-06-10T09:32:51.203Z,305.83
2019-06-10T09:33:50.762Z,305.32
2019-06-10T09:34:52.296Z,305.53
2019-06-10T09:35:50.933Z,305.76
2019-06-10T09:36:50.089Z,305.31
2019-06-10T09:37:51.120Z,305.64
2019-06-10T09:38:49.068Z,305.44
2019-06-10T09:39:52.493Z,305.49
2019-06-10T09:40:53.233Z,305.85
2019-06-10T09:41:59.716Z,305.82
2019-06-10T09:42:52.028Z,306.10
2019-06-10T09:43:50.823Z,305.64
2019-06-10T09:44:50.312Z,305.91
2019-06-10T09:45:49.139Z,305.81
2019-06-10T09:46:48.984Z,305.77
2019-06-10T09:47:53.002Z,305.52
2019-06-10T09:48:50.307Z,306.24
2019-06-10T09:49:50.207Z,306.07
2019-06-10T09:50:52.394Z,306.12
2019-06-10T09:51:50.646Z,305.64
2019-06-10T09:52:52.417Z,306.12
2019-06-10T09:53:56.176Z,305.65
2019-06-10T09:54:55.695Z,305.95
2019-06-10T09:55:51.000Z,305.85
2019-06-10T09:56:48.822Z,305.00
2019-06-10T09:57:49.761Z,305.85
2019-06-10T09:58:49.667Z,305.74
2019-06-10T09:59:51.368Z,306.05
2019-06-10T10:00:50.836Z,305.82
2019-06-10T10:01:50.972Z,305.64
2019-06-10T10:02:51.485Z,305.69
2019-06-10T10:03:53.484Z,305.56
2019-06-10T10:04:52.554Z,305.64
2019-06-10T10:05:59.444Z,304.93
2019-06-10T10:06:50.514Z,305.27
2019-06-10T10:07:50.771Z,305.75
2019-06-10T10:08:51.467Z,304.62
2019-06-10T10:09:51.396Z,305.73
2019-06-10T10:10:51.085Z,305.23
2019-06-10T10:11:49.266Z,305.15
2019-06-10T10:12:49.022Z,304.74
2019-06-10T10:13:49.431Z,305.34
2019-06-10T10:14:54.239Z,305.36
2019-06-10T10:15:48.236Z,304.80
2019-06-10T10:16:52.256Z,304.81
2019-06-10T10:17:49.493Z,305.01
2019-06-10T10:18:49.473Z,304.57
2019-06-10T10:19:49.659Z,305.05
2019-06-10T10:20:49.586Z,304.38
2019-06-10T10:21:51.230Z,304.42
2019-06-10T10:22:49.247Z,304.74
2019-06-10T10:23:54.017Z,304.62
2019-06-10T10:24:49.252Z,304.22
2019-06-10T10:25:48.251Z,304.23
2019-06-10T10:26:49.077Z,304.38
2019-06-10T10:27:50.871Z,304.39
2019-06-10T10:28:48.775Z,304.40
2019-06-10T10:29:48.877Z,304.02
2019-06-10T10:30:49.197Z,303.82
2019-06-10T10:31:49.474Z,304.21
2019-06-10T10:32:50.484Z,303.66
2019-06-10T10:33:46.838Z,304.20
2019-06-10T10:34:48.343Z,304.33
2019-06-10T10:35:48.021Z,304.43
2019-06-10T10:36:48.362Z,303.93
2019-06-10T10:37:46.696Z,304.31
2019-06-10T10:38:46.808Z,303.81
2019-06-10T10:39:46.731Z,303.92
2019-06-10T10:40:48.801Z,303.45
2019-06-10T10:41:47.142Z,303.63
2019-06-10T10:42:52.223Z,303.34
2019-06-10T10:43:51.212Z,303.17
2019-06-10T10:44:50.008Z,303.72
2019-06-10T10:45:50.347Z,302.89
2019-06-10T10:46:47.609Z,303.44
2019-06-10T10:47:46.961Z,303.49
2019-06-10T10:48:47.091Z,303.32
2019-06-10T10:49:47.046Z,303.14
2019-06-10T10:50:47.481Z,303.36
2019-06-10T10:51:46.988Z,302.65
2019-06-10T10:52:48.201Z,302.73
2019-06-10T10:53:50.533Z,302.94
2019-06-10T10:54:47.937Z,303.10
2019-06-10T10:55:47.188Z,302.94
2019-06-10T10:56:49.189Z,303.60
2019-06-10T10:57:47.288Z,302.79
2019-06-10T10:58:47.677Z,303.60
2019-06-10T10:59:47.760Z,303.15
2019-06-10T11:00:49.310Z,303.29
2019-06-10T11:01:47.530Z,303.63
2019-06-10T11:02:48.735Z,303.36
2019-06-10T11:03:48.157Z,303.60
2019-06-10T11:04:47.899Z,303.17
2019-06-10T11:05:49.484Z,303.58
2019-06-10T11:06:47.760Z,303.00
2019-06-10T11:07:47.537Z,303.56
2019-06-10T11:08:48.034Z,303.35
2019-06-10T11:09:46.983Z,303.37
2019-06-10T11:10:48.200Z,302.97
2019-06-10T11:11:47.222Z,303.25
2019-06-10T11:12:46.995Z,303.75
2019-06-10T11:13:47.386Z,303.08
2019-06-10T11:14:46.986Z,303.06
2019-06-10T11:15:47.336Z,303.57
2019-06-10T11:16:47.169Z,303.46
2019-06-10T11:17:47.258Z,303.33
2019-06-10T11:18:47.178Z,302.95
2019-06-10T11:19:47.285Z,303.29
2019-06-10T11:20:47.351Z,303.54
2019-06-10T11:21:47.387Z,303.68
2019-06-10T11:22:47.499Z,303.51
2019-06-10T11:23:46.293Z,303.51
2019-06-10T11:24:47.791Z,303.08
2019-06-10T11:25:46.154Z,303.14
2019-06-10T11:26:46.154Z,303.21
2019-06-10T11:27:46.423Z,303.12
2019-06-10T11:28:47.363Z,303.35
2019-06-10T11:29:46.172Z,303.51
2019-06-10T11:30:47.277Z,303.43
2019-06-10T11:31:46.303Z,303.62
2019-06-10T11:32:46.215Z,303.33
2019-06-10T11:33:46.890Z,303.53
2019-06-10T11:34:46.346Z,303.51
2019-06-10T11:35:46.724Z,303.74
2019-06-10T11:36:46.240Z,304.01
2019-06-10T11:37:46.828Z,304.00
2019-06-10T11:38:46.292Z,304.18
2019-06-10T11:39:46.017Z,304.06
2019-06-10T11:40:47.149Z,303.60
2019-06-10T11:41:46.005Z,303.45
2019-06-10T11:42:46.314Z,304.09
2019-06-10T11:43:46.340Z,304.48
2019-06-10T11:44:46.376Z,304.50
2019-06-10T11:45:51.155Z,303.95
2019-06-10T11:46:46.926Z,304.33
2019-06-10T11:47:46.680Z,303.77
2019-06-10T11:48:46.990Z,304.32
2019-06-10T11:49:46.878Z,303.90
2019-06-10T11:50:47.038Z,304.33
2019-06-10T11:51:47.102Z,303.84
2019-06-10T11:52:45.870Z,304.06
2019-06-10T11:53:45.862Z,303.62
2019-06-10T11:54:55.733Z,303.97
2019-06-10T11:55:47.651Z,303.64
2019-06-10T11:56:45.847Z,303.80
2019-06-10T11:57:45.814Z,304.27
2019-06-10T11:58:45.818Z,303.48
2019-06-10T11:59:45.853Z,303.85
2019-06-10T12:00:45.784Z,303.39
2019-06-10T12:01:45.784Z,304.19
2019-06-10T12:02:45.762Z,303.88
2019-06-10T12:03:45.748Z,303.27
2019-06-10T12:04:45.771Z,303.71
2019-06-10T12:05:45.802Z,303.96
2019-06-10T12:06:45.713Z,304.33
2019-06-10T12:07:45.723Z,303.64
2019-06-10T12:08:45.689Z,303.75
2019-06-10T12:09:45.695Z,303.86
2019-06-10T12:10:45.688Z,303.81
2019-06-10T12:11:45.663Z,303.87
2019-06-10T12:12:45.665Z,303.43
2019-06-10T12:13:45.647Z,303.71
2019-06-10T12:14:45.685Z,303.62
2019-06-10T12:16:30.477Z,303.59
2019-06-10T12:17:51.050Z,303.38
2019-06-10T12:18:46.738Z,303.33
2019-06-10T12:19:45.575Z,303.60
2019-06-10T12:20:45.576Z,303.42
2019-06-10T12:21:45.554Z,302.77
2019-06-10T12:22:45.641Z,303.43
2019-06-10T12:23:45.527Z,303.68
2019-06-10T12:24:45.526Z,303.26
2019-06-10T12:25:47.939Z,303.49
2019-06-10T12:26:45.512Z,303.80
2019-06-10T12:27:45.489Z,303.54
2019-06-10T12:28:45.480Z,303.76
2019-06-10T12:29:45.527Z,303.63